sensor_id;sensor_type;location;lat;lon;timestamp;pressure;altitude;pressure_sealevel;temperature;humidity
55517;BME280;41724;51.176;-0.708;2023-04-21T00:00:23;101184.33;;;13.10;53.28
55517;BME280;41724;51.176;-0.708;2023-04-21T00:02:51;101188.02;;;12.73;53.58
55517;BME280;41724;51.176;-0.708;2023-04-21T00:05:19;101187.90;;;12.87;54.34
55517;BME280;41724;51.176;-0.708;2023-04-21T00:07:46;101186.07;;;12.61;54.04
55517;BME280;41724;51.176;-0.708;2023-04-21T00:10:13;101184.01;;;13.06;53.33
55517;BME280;41724;51.176;-0.708;2023-04-21T00:12:40;101185.74;;;12.72;53.74
55517;BME280;41724;51.176;-0.708;2023-04-21T00:15:08;101182.14;;;12.67;54.38
55517;BME280;41724;51.176;-0.708;2023-04-21T00:17:34;101182.44;;;12.85;54.01
55517;BME280;41724;51.176;-0.708;2023-04-21T00:20:02;101177.97;;;12.36;55.12
55517;BME280;41724;51.176;-0.708;2023-04-21T00:22:29;101175.73;;;12.55;54.21
55517;BME280;41724;51.176;-0.708;2023-04-21T00:24:56;101174.71;;;12.67;54.61
55517;BME280;41724;51.176;-0.708;2023-04-21T00:27:24;101177.43;;;12.68;54.28
55517;BME280;41724;51.176;-0.708;2023-04-21T00:29:50;101175.92;;;12.40;54.41
55517;BME280;41724;51.176;-0.708;2023-04-21T00:32:18;101173.58;;;12.34;54.75
55517;BME280;41724;51.176;-0.708;2023-04-21T00:34:44;101174.61;;;12.35;54.34
55517;BME280;41724;51.176;-0.708;2023-04-21T00:37:11;101170.67;;;12.37;54.97
55517;BME280;41724;51.176;-0.708;2023-04-21T00:39:38;101168.30;;;12.37;55.03
55517;BME280;41724;51.176;-0.708;2023-04-21T00:42:05;101169.22;;;12.08;55.33
55517;BME280;41724;51.176;-0.708;2023-04-21T00:44:32;101158.51;;;12.36;55.08
55517;BME280;41724;51.176;-0.708;2023-04-21T00:46:59;101164.57;;;12.21;55.79
55517;BME280;41724;51.176;-0.708;2023-04-21T00:49:26;101162.67;;;12.13;55.48
55517;BME280;41724;51.176;-0.708;2023-04-21T00:51:54;101159.07;;;11.92;56.97
55517;BME280;41724;51.176;-0.708;2023-04-21T00:54:23;101157.02;;;11.90;57.19
55517;BME280;41724;51.176;-0.708;2023-04-21T00:56:50;101153.40;;;12.14;56.83
55517;BME280;41724;51.176;-0.708;2023-04-21T00:59:18;101155.77;;;12.09;56.52
55517;BME280;41724;51.176;-0.708;2023-04-21T01:01:45;101154.03;;;11.70;57.19
55517;BME280;41724;51.176;-0.708;2023-04-21T01:04:12;101153.58;;;11.84;57.85
55517;BME280;41724;51.176;-0.708;2023-04-21T01:06:40;101149.23;;;12.14;57.03
55517;BME280;41724;51.176;-0.708;2023-04-21T01:09:07;101146.76;;;12.41;57.46
55517;BME280;41724;51.176;-0.708;2023-04-21T01:11:34;101143.75;;;12.15;56.75
55517;BME280;41724;51.176;-0.708;2023-04-21T01:14:02;101141.74;;;12.46;56.34
55517;BME280;41724;51.176;-0.708;2023-04-21T01:16:28;101140.61;;;12.14;58.07
55517;BME280;41724;51.176;-0.708;2023-04-21T01:18:55;101137.70;;;12.44;57.10
55517;BME280;41724;51.176;-0.708;2023-04-21T01:21:22;101134.22;;;12.25;56.06
55517;BME280;41724;51.176;-0.708;2023-04-21T01:23:49;101135.18;;;11.71;58.90
55517;BME280;41724;51.176;-0.708;2023-04-21T01:26:17;101121.08;;;11.78;57.14
55517;BME280;41724;51.176;-0.708;2023-04-21T01:28:44;101123.62;;;11.74;58.00
55517;BME280;41724;51.176;-0.708;2023-04-21T01:31:11;101127.79;;;11.85;58.36
55517;BME280;41724;51.176;-0.708;2023-04-21T01:33:38;101121.11;;;12.10;57.37
55517;BME280;41724;51.176;-0.708;2023-04-21T01:36:06;101117.25;;;12.00;57.05
55517;BME280;41724;51.176;-0.708;2023-04-21T01:38:36;101117.16;;;12.04;57.59
55517;BME280;41724;51.176;-0.708;2023-04-21T01:41:05;101124.60;;;11.94;58.11
55517;BME280;41724;51.176;-0.708;2023-04-21T01:43:32;101116.89;;;12.03;59.93
55517;BME280;41724;51.176;-0.708;2023-04-21T01:45:59;101112.76;;;11.51;60.29
55517;BME280;41724;51.176;-0.708;2023-04-21T01:48:27;101108.18;;;11.46;60.58
55517;BME280;41724;51.176;-0.708;2023-04-21T01:50:54;101102.64;;;10.56;63.68
55517;BME280;41724;51.176;-0.708;2023-04-21T01:53:22;101093.46;;;11.18;62.32
55517;BME280;41724;51.176;-0.708;2023-04-21T01:55:49;101087.70;;;11.19;61.12
55517;BME280;41724;51.176;-0.708;2023-04-21T01:58:16;101093.22;;;11.31;61.89
55517;BME280;41724;51.176;-0.708;2023-04-21T02:00:43;101090.96;;;11.54;60.16
55517;BME280;41724;51.176;-0.708;2023-04-21T02:03:11;101090.02;;;11.94;59.45
55517;BME280;41724;51.176;-0.708;2023-04-21T02:05:37;101092.07;;;11.55;60.64
55517;BME280;41724;51.176;-0.708;2023-04-21T02:08:05;101085.35;;;11.71;59.66
55517;BME280;41724;51.176;-0.708;2023-04-21T02:10:31;101083.67;;;11.21;59.95
55517;BME280;41724;51.176;-0.708;2023-04-21T02:12:59;101081.43;;;11.36;60.19
55517;BME280;41724;51.176;-0.708;2023-04-21T02:15:26;101087.16;;;11.67;60.22
55517;BME280;41724;51.176;-0.708;2023-04-21T02:17:53;101093.97;;;11.41;61.40
55517;BME280;41724;51.176;-0.708;2023-04-21T02:20:20;101092.49;;;11.58;60.82
55517;BME280;41724;51.176;-0.708;2023-04-21T02:22:47;101091.15;;;11.78;60.34
55517;BME280;41724;51.176;-0.708;2023-04-21T02:25:15;101083.66;;;11.75;61.14
55517;BME280;41724;51.176;-0.708;2023-04-21T02:27:42;101079.43;;;11.79;60.93
55517;BME280;41724;51.176;-0.708;2023-04-21T02:30:09;101078.20;;;12.21;60.28
55517;BME280;41724;51.176;-0.708;2023-04-21T02:32:36;101069.99;;;12.08;59.62
55517;BME280;41724;51.176;-0.708;2023-04-21T02:35:04;101066.29;;;12.37;60.18
55517;BME280;41724;51.176;-0.708;2023-04-21T02:37:31;101062.54;;;12.39;59.49
55517;BME280;41724;51.176;-0.708;2023-04-21T02:39:57;101060.03;;;12.74;58.79
55517;BME280;41724;51.176;-0.708;2023-04-21T02:42:25;101054.63;;;12.24;58.75
55517;BME280;41724;51.176;-0.708;2023-04-21T02:44:52;101050.23;;;12.60;57.91
55517;BME280;41724;51.176;-0.708;2023-04-21T02:47:19;101045.81;;;12.57;57.46
55517;BME280;41724;51.176;-0.708;2023-04-21T02:49:47;101041.39;;;12.42;58.29
55517;BME280;41724;51.176;-0.708;2023-04-21T02:52:14;101035.88;;;12.65;57.72
55517;BME280;41724;51.176;-0.708;2023-04-21T02:54:41;101032.23;;;12.43;57.65
55517;BME280;41724;51.176;-0.708;2023-04-21T02:57:08;101030.81;;;12.86;57.64
55517;BME280;41724;51.176;-0.708;2023-04-21T02:59:36;101028.71;;;12.59;58.30
55517;BME280;41724;51.176;-0.708;2023-04-21T03:02:03;101021.51;;;12.36;58.49
55517;BME280;41724;51.176;-0.708;2023-04-21T03:04:30;101018.65;;;12.10;58.34
55517;BME280;41724;51.176;-0.708;2023-04-21T03:06:57;101020.06;;;12.31;59.03
55517;BME280;41724;51.176;-0.708;2023-04-21T03:09:24;101020.06;;;11.86;58.54
55517;BME280;41724;51.176;-0.708;2023-04-21T03:11:51;101022.66;;;11.98;58.78
55517;BME280;41724;51.176;-0.708;2023-04-21T03:14:18;101021.28;;;12.12;59.62
55517;BME280;41724;51.176;-0.708;2023-04-21T03:16:45;101024.97;;;11.83;59.72
55517;BME280;41724;51.176;-0.708;2023-04-21T03:19:12;101022.95;;;11.95;58.13
55517;BME280;41724;51.176;-0.708;2023-04-21T03:21:40;101025.08;;;11.85;59.45
55517;BME280;41724;51.176;-0.708;2023-04-21T03:24:07;101025.32;;;11.98;59.95
55517;BME280;41724;51.176;-0.708;2023-04-21T03:26:34;101019.65;;;11.71;58.71
55517;BME280;41724;51.176;-0.708;2023-04-21T03:29:01;101018.32;;;11.95;58.79
55517;BME280;41724;51.176;-0.708;2023-04-21T03:31:28;101014.68;;;12.19;58.92
55517;BME280;41724;51.176;-0.708;2023-04-21T03:33:55;101012.00;;;12.19;58.97
55517;BME280;41724;51.176;-0.708;2023-04-21T03:36:23;101010.13;;;12.17;59.74
55517;BME280;41724;51.176;-0.708;2023-04-21T03:38:49;101006.34;;;12.22;58.67
55517;BME280;41724;51.176;-0.708;2023-04-21T03:41:17;101004.85;;;11.91;59.42
55517;BME280;41724;51.176;-0.708;2023-04-21T03:43:45;101000.09;;;12.28;58.24
55517;BME280;41724;51.176;-0.708;2023-04-21T03:46:20;100993.41;;;12.37;58.06
55517;BME280;41724;51.176;-0.708;2023-04-21T03:48:48;100987.38;;;12.56;57.09
55517;BME280;41724;51.176;-0.708;2023-04-21T03:51:15;100984.42;;;12.01;58.01
55517;BME280;41724;51.176;-0.708;2023-04-21T03:53:42;100978.33;;;12.13;57.82
55517;BME280;41724;51.176;-0.708;2023-04-21T03:56:09;100974.13;;;11.63;59.04
55517;BME280;41724;51.176;-0.708;2023-04-21T03:58:36;100969.11;;;11.55;58.59
55517;BME280;41724;51.176;-0.708;2023-04-21T04:01:04;100964.82;;;11.55;58.39
55517;BME280;41724;51.176;-0.708;2023-04-21T04:03:32;100956.03;;;11.49;58.94
55517;BME280;41724;51.176;-0.708;2023-04-21T04:05:59;100953.38;;;12.16;59.36
55517;BME280;41724;51.176;-0.708;2023-04-21T04:08:26;100946.58;;;12.05;58.23
55517;BME280;41724;51.176;-0.708;2023-04-21T04:10:54;100946.14;;;11.40;58.82
55517;BME280;41724;51.176;-0.708;2023-04-21T04:13:21;100946.99;;;11.90;57.98
55517;BME280;41724;51.176;-0.708;2023-04-21T04:15:49;100945.99;;;12.05;58.58
55517;BME280;41724;51.176;-0.708;2023-04-21T04:18:16;100944.69;;;12.11;57.07
55517;BME280;41724;51.176;-0.708;2023-04-21T04:20:43;100943.13;;;11.97;57.63
55517;BME280;41724;51.176;-0.708;2023-04-21T04:23:10;100947.41;;;12.08;57.76
55517;BME280;41724;51.176;-0.708;2023-04-21T04:25:36;100942.43;;;11.80;58.28
55517;BME280;41724;51.176;-0.708;2023-04-21T04:28:03;100941.44;;;11.76;59.21
55517;BME280;41724;51.176;-0.708;2023-04-21T04:30:31;100941.24;;;11.44;59.66
55517;BME280;41724;51.176;-0.708;2023-04-21T04:32:58;100937.45;;;11.76;59.58
55517;BME280;41724;51.176;-0.708;2023-04-21T04:35:25;100935.51;;;11.75;58.99
55517;BME280;41724;51.176;-0.708;2023-04-21T04:37:52;100932.18;;;11.76;58.43
55517;BME280;41724;51.176;-0.708;2023-04-21T04:40:19;100931.87;;;11.52;58.36
55517;BME280;41724;51.176;-0.708;2023-04-21T04:42:46;100928.56;;;11.80;57.95
55517;BME280;41724;51.176;-0.708;2023-04-21T04:45:14;100923.94;;;12.15;58.12
55517;BME280;41724;51.176;-0.708;2023-04-21T04:47:40;100921.98;;;11.72;58.44
55517;BME280;41724;51.176;-0.708;2023-04-21T04:50:08;100916.43;;;11.76;58.37
55517;BME280;41724;51.176;-0.708;2023-04-21T04:52:35;100915.20;;;11.93;57.62
55517;BME280;41724;51.176;-0.708;2023-04-21T04:55:02;100916.32;;;11.82;58.08
55517;BME280;41724;51.176;-0.708;2023-04-21T04:57:30;100912.21;;;11.59;57.52
55517;BME280;41724;51.176;-0.708;2023-04-21T04:59:57;100908.37;;;11.76;57.52
55517;BME280;41724;51.176;-0.708;2023-04-21T05:02:23;100910.16;;;11.89;57.36
55517;BME280;41724;51.176;-0.708;2023-04-21T05:04:51;100910.74;;;11.79;58.61
55517;BME280;41724;51.176;-0.708;2023-04-21T05:07:18;100910.82;;;12.07;57.47
55517;BME280;41724;51.176;-0.708;2023-04-21T05:09:45;100907.18;;;11.68;57.84
55517;BME280;41724;51.176;-0.708;2023-04-21T05:12:12;100905.29;;;11.55;58.93
55517;BME280;41724;51.176;-0.708;2023-04-21T05:14:39;100903.49;;;11.86;57.85
55517;BME280;41724;51.176;-0.708;2023-04-21T05:17:06;100903.62;;;11.45;58.45
55517;BME280;41724;51.176;-0.708;2023-04-21T05:19:34;100900.98;;;11.88;58.55
55517;BME280;41724;51.176;-0.708;2023-04-21T05:22:02;100903.88;;;11.43;57.94
55517;BME280;41724;51.176;-0.708;2023-04-21T05:24:29;100898.93;;;11.73;57.35
55517;BME280;41724;51.176;-0.708;2023-04-21T05:26:59;100901.13;;;11.79;57.82
55517;BME280;41724;51.176;-0.708;2023-04-21T05:29:26;100894.75;;;11.64;56.98
55517;BME280;41724;51.176;-0.708;2023-04-21T05:31:53;100892.39;;;11.55;57.92
55517;BME280;41724;51.176;-0.708;2023-04-21T05:34:20;100894.98;;;11.47;58.38
55517;BME280;41724;51.176;-0.708;2023-04-21T05:36:47;100895.23;;;11.94;57.49
55517;BME280;41724;51.176;-0.708;2023-04-21T05:39:14;100895.35;;;11.78;57.16
55517;BME280;41724;51.176;-0.708;2023-04-21T05:41:41;100890.52;;;12.20;56.32
55517;BME280;41724;51.176;-0.708;2023-04-21T05:44:08;100893.93;;;11.95;56.43
55517;BME280;41724;51.176;-0.708;2023-04-21T05:46:35;100894.01;;;12.30;56.50
55517;BME280;41724;51.176;-0.708;2023-04-21T05:49:02;100897.78;;;11.75;55.32
55517;BME280;41724;51.176;-0.708;2023-04-21T05:51:29;100897.28;;;11.89;56.79
55517;BME280;41724;51.176;-0.708;2023-04-21T05:53:56;100892.70;;;12.41;55.25
55517;BME280;41724;51.176;-0.708;2023-04-21T05:56:23;100893.11;;;12.50;54.56
55517;BME280;41724;51.176;-0.708;2023-04-21T05:58:50;100891.52;;;12.33;55.65
55517;BME280;41724;51.176;-0.708;2023-04-21T06:01:17;100889.01;;;11.86;55.24
55517;BME280;41724;51.176;-0.708;2023-04-21T06:03:44;100884.16;;;12.14;56.01
55517;BME280;41724;51.176;-0.708;2023-04-21T06:06:11;100881.96;;;12.34;56.45
55517;BME280;41724;51.176;-0.708;2023-04-21T06:08:38;100881.13;;;11.91;55.55
55517;BME280;41724;51.176;-0.708;2023-04-21T06:11:05;100879.48;;;12.18;56.08
55517;BME280;41724;51.176;-0.708;2023-04-21T06:13:32;100873.95;;;11.96;55.95
55517;BME280;41724;51.176;-0.708;2023-04-21T06:15:59;100870.90;;;12.32;54.65
55517;BME280;41724;51.176;-0.708;2023-04-21T06:18:27;100876.85;;;11.54;56.63
55517;BME280;41724;51.176;-0.708;2023-04-21T06:20:54;100873.22;;;12.28;55.13
55517;BME280;41724;51.176;-0.708;2023-04-21T06:23:22;100871.08;;;11.99;56.00
55517;BME280;41724;51.176;-0.708;2023-04-21T06:25:58;100867.42;;;12.22;54.60
55517;BME280;41724;51.176;-0.708;2023-04-21T06:28:25;100865.91;;;12.18;55.22
55517;BME280;41724;51.176;-0.708;2023-04-21T06:30:52;100861.01;;;12.14;55.49
55517;BME280;41724;51.176;-0.708;2023-04-21T06:33:19;100851.40;;;12.67;55.48
55517;BME280;41724;51.176;-0.708;2023-04-21T06:35:46;100845.56;;;12.69;54.30
55517;BME280;41724;51.176;-0.708;2023-04-21T06:38:12;100841.65;;;12.55;54.03
55517;BME280;41724;51.176;-0.708;2023-04-21T06:40:40;100837.70;;;12.54;54.93
55517;BME280;41724;51.176;-0.708;2023-04-21T06:43:08;100836.48;;;12.28;54.20
55517;BME280;41724;51.176;-0.708;2023-04-21T06:45:35;100830.99;;;13.09;54.19
55517;BME280;41724;51.176;-0.708;2023-04-21T06:48:02;100825.11;;;13.23;52.53
55517;BME280;41724;51.176;-0.708;2023-04-21T06:50:29;100826.13;;;12.65;54.55
55517;BME280;41724;51.176;-0.708;2023-04-21T06:52:56;100824.38;;;12.73;53.39
55517;BME280;41724;51.176;-0.708;2023-04-21T06:55:23;100818.87;;;12.69;53.59
55517;BME280;41724;51.176;-0.708;2023-04-21T06:57:51;100815.92;;;12.99;55.07
55517;BME280;41724;51.176;-0.708;2023-04-21T07:00:18;100813.76;;;13.10;54.36
55517;BME280;41724;51.176;-0.708;2023-04-21T07:02:45;100806.44;;;13.17;54.97
55517;BME280;41724;51.176;-0.708;2023-04-21T07:05:12;100800.05;;;13.09;54.58
55517;BME280;41724;51.176;-0.708;2023-04-21T07:07:39;100801.42;;;12.91;53.75
55517;BME280;41724;51.176;-0.708;2023-04-21T07:10:08;100797.18;;;12.99;53.56
55517;BME280;41724;51.176;-0.708;2023-04-21T07:12:35;100792.97;;;12.95;56.37
55517;BME280;41724;51.176;-0.708;2023-04-21T07:15:02;100788.34;;;12.90;55.14
55517;BME280;41724;51.176;-0.708;2023-04-21T07:17:30;100784.17;;;13.30;54.68
55517;BME280;41724;51.176;-0.708;2023-04-21T07:19:57;100782.62;;;13.23;54.54
55517;BME280;41724;51.176;-0.708;2023-04-21T07:22:24;100783.90;;;13.45;54.67
55517;BME280;41724;51.176;-0.708;2023-04-21T07:24:51;100781.99;;;13.38;54.75
55517;BME280;41724;51.176;-0.708;2023-04-21T07:27:18;100776.74;;;13.14;54.01
55517;BME280;41724;51.176;-0.708;2023-04-21T07:29:45;100775.62;;;13.07;54.42
55517;BME280;41724;51.176;-0.708;2023-04-21T07:32:12;100775.91;;;13.08;54.78
55517;BME280;41724;51.176;-0.708;2023-04-21T07:34:39;100774.29;;;13.25;55.00
55517;BME280;41724;51.176;-0.708;2023-04-21T07:37:07;100767.66;;;13.42;54.66
55517;BME280;41724;51.176;-0.708;2023-04-21T07:39:34;100764.62;;;13.60;54.37
55517;BME280;41724;51.176;-0.708;2023-04-21T07:42:01;100760.95;;;13.65;54.65
55517;BME280;41724;51.176;-0.708;2023-04-21T07:44:28;100764.85;;;13.12;54.36
55517;BME280;41724;51.176;-0.708;2023-04-21T07:46:56;100760.98;;;13.10;55.03
55517;BME280;41724;51.176;-0.708;2023-04-21T07:49:23;100761.33;;;13.83;54.53
55517;BME280;41724;51.176;-0.708;2023-04-21T07:51:50;100759.34;;;13.63;53.63
55517;BME280;41724;51.176;-0.708;2023-04-21T07:54:17;100759.08;;;13.64;53.30
55517;BME280;41724;51.176;-0.708;2023-04-21T07:56:45;100762.12;;;13.93;52.81
55517;BME280;41724;51.176;-0.708;2023-04-21T07:59:12;100759.78;;;14.00;52.95
55517;BME280;41724;51.176;-0.708;2023-04-21T08:01:39;100758.60;;;13.70;52.62
55517;BME280;41724;51.176;-0.708;2023-04-21T08:04:06;100757.84;;;13.43;54.18
55517;BME280;41724;51.176;-0.708;2023-04-21T08:06:33;100757.15;;;13.48;53.35
55517;BME280;41724;51.176;-0.708;2023-04-21T08:09:01;100756.15;;;13.63;54.02
55517;BME280;41724;51.176;-0.708;2023-04-21T08:11:28;100755.86;;;13.70;53.96
55517;BME280;41724;51.176;-0.708;2023-04-21T08:13:56;100755.27;;;13.71;52.92
55517;BME280;41724;51.176;-0.708;2023-04-21T08:16:23;100752.61;;;13.44;53.82
55517;BME280;41724;51.176;-0.708;2023-04-21T08:18:50;100750.37;;;13.53;53.30
55517;BME280;41724;51.176;-0.708;2023-04-21T08:21:19;100748.71;;;13.71;52.44
55517;BME280;41724;51.176;-0.708;2023-04-21T08:23:46;100746.73;;;13.66;54.22
55517;BME280;41724;51.176;-0.708;2023-04-21T08:26:13;100745.93;;;13.61;51.98
55517;BME280;41724;51.176;-0.708;2023-04-21T08:28:46;100744.02;;;13.91;52.48
55517;BME280;41724;51.176;-0.708;2023-04-21T08:31:13;100743.71;;;14.20;53.51
55517;BME280;41724;51.176;-0.708;2023-04-21T08:33:40;100740.84;;;13.81;53.14
55517;BME280;41724;51.176;-0.708;2023-04-21T08:36:07;100735.87;;;14.12;52.54
55517;BME280;41724;51.176;-0.708;2023-04-21T08:38:35;100736.25;;;14.32;53.40
55517;BME280;41724;51.176;-0.708;2023-04-21T08:41:03;100732.66;;;13.98;51.09
55517;BME280;41724;51.176;-0.708;2023-04-21T08:43:30;100731.51;;;13.97;53.16
55517;BME280;41724;51.176;-0.708;2023-04-21T08:45:58;100730.93;;;14.23;51.68
55517;BME280;41724;51.176;-0.708;2023-04-21T08:48:27;100732.37;;;14.37;52.26
55517;BME280;41724;51.176;-0.708;2023-04-21T08:51:01;100731.91;;;14.01;51.54
55517;BME280;41724;51.176;-0.708;2023-04-21T08:53:34;100728.52;;;13.91;52.07
55517;BME280;41724;51.176;-0.708;2023-04-21T08:56:03;100731.60;;;13.95;51.56
55517;BME280;41724;51.176;-0.708;2023-04-21T08:58:30;100732.21;;;13.70;51.84
55517;BME280;41724;51.176;-0.708;2023-04-21T09:01:07;100735.02;;;12.86;54.70
55517;BME280;41724;51.176;-0.708;2023-04-21T09:03:34;100731.24;;;13.48;54.79
55517;BME280;41724;51.176;-0.708;2023-04-21T09:06:07;100726.00;;;13.99;51.87
55517;BME280;41724;51.176;-0.708;2023-04-21T09:08:42;100729.76;;;13.44;53.74
55517;BME280;41724;51.176;-0.708;2023-04-21T09:11:13;100733.92;;;13.30;52.85
55517;BME280;41724;51.176;-0.708;2023-04-21T09:13:42;100737.38;;;12.82;54.53
55517;BME280;41724;51.176;-0.708;2023-04-21T09:16:16;100735.22;;;13.01;55.50
55517;BME280;41724;51.176;-0.708;2023-04-21T09:18:44;100732.33;;;13.05;54.31
55517;BME280;41724;51.176;-0.708;2023-04-21T09:21:13;100729.57;;;13.54;54.21
55517;BME280;41724;51.176;-0.708;2023-04-21T09:23:42;100730.49;;;13.09;54.90
55517;BME280;41724;51.176;-0.708;2023-04-21T09:26:20;100737.13;;;13.01;54.23
55517;BME280;41724;51.176;-0.708;2023-04-21T09:28:49;100736.45;;;12.53;56.81
55517;BME280;41724;51.176;-0.708;2023-04-21T09:31:19;100738.12;;;12.84;55.53
55517;BME280;41724;51.176;-0.708;2023-04-21T09:33:51;100736.19;;;12.37;55.96
55517;BME280;41724;51.176;-0.708;2023-04-21T09:36:19;100733.74;;;12.29;56.13
55517;BME280;41724;51.176;-0.708;2023-04-21T09:38:54;100729.35;;;12.15;55.69
55517;BME280;41724;51.176;-0.708;2023-04-21T09:41:21;100728.87;;;12.79;56.33
55517;BME280;41724;51.176;-0.708;2023-04-21T09:43:48;100730.26;;;12.58;56.11
55517;BME280;41724;51.176;-0.708;2023-04-21T09:46:15;100728.18;;;12.23;57.95
55517;BME280;41724;51.176;-0.708;2023-04-21T09:48:44;100729.12;;;12.18;58.20
55517;BME280;41724;51.176;-0.708;2023-04-21T09:51:12;100730.95;;;12.24;57.97
55517;BME280;41724;51.176;-0.708;2023-04-21T09:53:41;100731.44;;;12.59;58.24
55517;BME280;41724;51.176;-0.708;2023-04-21T09:56:11;100735.65;;;12.67;56.02
55517;BME280;41724;51.176;-0.708;2023-04-21T09:58:43;100740.76;;;13.17;55.89
55517;BME280;41724;51.176;-0.708;2023-04-21T10:01:13;100734.13;;;12.55;56.50
55517;BME280;41724;51.176;-0.708;2023-04-21T10:03:43;100736.79;;;12.37;59.53
55517;BME280;41724;51.176;-0.708;2023-04-21T10:06:11;100732.13;;;12.47;57.76
55517;BME280;41724;51.176;-0.708;2023-04-21T10:08:44;100733.17;;;12.38;57.27
55517;BME280;41724;51.176;-0.708;2023-04-21T10:11:12;100734.76;;;12.86;58.02
55517;BME280;41724;51.176;-0.708;2023-04-21T10:13:41;100731.62;;;13.57;57.15
55517;BME280;41724;51.176;-0.708;2023-04-21T10:16:08;100734.75;;;13.54;55.52
55517;BME280;41724;51.176;-0.708;2023-04-21T10:18:37;100730.11;;;13.50;55.61
55517;BME280;41724;51.176;-0.708;2023-04-21T10:21:06;100727.92;;;13.21;54.49
55517;BME280;41724;51.176;-0.708;2023-04-21T10:23:42;100725.68;;;12.41;57.84
55517;BME280;41724;51.176;-0.708;2023-04-21T10:26:18;100722.98;;;13.43;56.56
55517;BME280;41724;51.176;-0.708;2023-04-21T10:28:51;100719.46;;;12.31;57.98
55517;BME280;41724;51.176;-0.708;2023-04-21T10:31:22;100719.21;;;12.22;60.10
55517;BME280;41724;51.176;-0.708;2023-04-21T10:34:35;100724.56;;;11.67;60.68
55517;BME280;41724;51.176;-0.708;2023-04-21T10:37:18;100724.00;;;11.73;60.44
55517;BME280;41724;51.176;-0.708;2023-04-21T10:39:52;100719.50;;;13.08;57.77
55517;BME280;41724;51.176;-0.708;2023-04-21T10:42:23;100718.24;;;12.94;55.50
55517;BME280;41724;51.176;-0.708;2023-04-21T10:44:53;100712.69;;;12.67;56.07
55517;BME280;41724;51.176;-0.708;2023-04-21T10:47:25;100710.47;;;13.79;56.32
55517;BME280;41724;51.176;-0.708;2023-04-21T10:49:56;100713.33;;;13.13;56.43
55517;BME280;41724;51.176;-0.708;2023-04-21T10:52:31;100710.24;;;13.43;56.98
55517;BME280;41724;51.176;-0.708;2023-04-21T10:55:06;100708.34;;;13.36;52.98
55517;BME280;41724;51.176;-0.708;2023-04-21T10:57:41;100710.92;;;14.01;54.47
55517;BME280;41724;51.176;-0.708;2023-04-21T11:00:17;100708.56;;;14.04;53.24
55517;BME280;41724;51.176;-0.708;2023-04-21T11:02:53;100704.74;;;13.60;54.97
55517;BME280;41724;51.176;-0.708;2023-04-21T11:05:27;100705.40;;;14.45;52.33
55517;BME280;41724;51.176;-0.708;2023-04-21T11:08:02;100700.61;;;14.78;51.90
55517;BME280;41724;51.176;-0.708;2023-04-21T11:10:45;100702.00;;;14.23;52.28
55517;BME280;41724;51.176;-0.708;2023-04-21T11:13:12;100702.04;;;14.13;53.13
55517;BME280;41724;51.176;-0.708;2023-04-21T11:15:40;100699.56;;;14.33;54.22
55517;BME280;41724;51.176;-0.708;2023-04-21T11:18:07;100697.94;;;14.50;53.61
55517;BME280;41724;51.176;-0.708;2023-04-21T11:20:39;100695.28;;;14.52;51.87
55517;BME280;41724;51.176;-0.708;2023-04-21T11:23:16;100695.99;;;13.98;52.32
55517;BME280;41724;51.176;-0.708;2023-04-21T11:25:48;100695.37;;;14.70;51.66
55517;BME280;41724;51.176;-0.708;2023-04-21T11:28:20;100693.69;;;14.59;52.09
55517;BME280;41724;51.176;-0.708;2023-04-21T11:30:47;100695.89;;;14.86;52.62
55517;BME280;41724;51.176;-0.708;2023-04-21T11:33:13;100692.91;;;14.76;51.04
55517;BME280;41724;51.176;-0.708;2023-04-21T11:35:40;100694.21;;;14.26;50.36
55517;BME280;41724;51.176;-0.708;2023-04-21T11:38:07;100690.69;;;14.14;53.21
55517;BME280;41724;51.176;-0.708;2023-04-21T11:40:44;100691.19;;;14.11;53.36
55517;BME280;41724;51.176;-0.708;2023-04-21T11:43:12;100690.42;;;14.11;52.25
55517;BME280;41724;51.176;-0.708;2023-04-21T11:45:39;100689.86;;;14.43;52.11
55517;BME280;41724;51.176;-0.708;2023-04-21T11:48:14;100689.69;;;14.31;53.26
55517;BME280;41724;51.176;-0.708;2023-04-21T11:50:48;100688.56;;;14.31;51.65
55517;BME280;41724;51.176;-0.708;2023-04-21T11:53:15;100687.53;;;14.61;50.02
55517;BME280;41724;51.176;-0.708;2023-04-21T11:55:48;100692.50;;;14.35;50.85
55517;BME280;41724;51.176;-0.708;2023-04-21T11:58:16;100688.43;;;14.42;49.56
55517;BME280;41724;51.176;-0.708;2023-04-21T12:00:52;100685.55;;;14.55;49.81
55517;BME280;41724;51.176;-0.708;2023-04-21T12:03:20;100683.95;;;14.57;49.52
55517;BME280;41724;51.176;-0.708;2023-04-21T12:05:54;100683.26;;;14.55;48.51
55517;BME280;41724;51.176;-0.708;2023-04-21T12:08:21;100684.50;;;14.63;47.71
55517;BME280;41724;51.176;-0.708;2023-04-21T12:10:54;100687.03;;;14.77;48.77
55517;BME280;41724;51.176;-0.708;2023-04-21T12:13:22;100689.44;;;14.43;48.29
55517;BME280;41724;51.176;-0.708;2023-04-21T12:15:50;100687.13;;;14.03;49.96
55517;BME280;41724;51.176;-0.708;2023-04-21T12:18:17;100686.49;;;13.72;48.20
55517;BME280;41724;51.176;-0.708;2023-04-21T12:20:48;100685.62;;;13.76;48.57
55517;BME280;41724;51.176;-0.708;2023-04-21T12:23:17;100688.39;;;14.05;47.43
55517;BME280;41724;51.176;-0.708;2023-04-21T12:25:45;100689.41;;;14.44;47.24
55517;BME280;41724;51.176;-0.708;2023-04-21T12:28:15;100688.78;;;14.39;49.93
55517;BME280;41724;51.176;-0.708;2023-04-21T12:30:43;100690.25;;;14.60;48.10
55517;BME280;41724;51.176;-0.708;2023-04-21T12:33:11;100693.55;;;15.22;46.58
55517;BME280;41724;51.176;-0.708;2023-04-21T12:35:39;100691.97;;;14.23;46.70
55517;BME280;41724;51.176;-0.708;2023-04-21T12:38:06;100686.77;;;14.75;47.87
55517;BME280;41724;51.176;-0.708;2023-04-21T12:40:43;100688.75;;;14.75;48.81
55517;BME280;41724;51.176;-0.708;2023-04-21T12:43:11;100686.28;;;14.80;44.95
55517;BME280;41724;51.176;-0.708;2023-04-21T12:45:38;100685.37;;;15.39;46.45